x

Portland 12 Nm Southeast Of Portland,me (44007) Wave Buoy

5:50 - Thu 24th Jul 2014 All times are EDT. -4 hours from GMT.

  • Sig Wave height 1.3ft
  • Swell Direction
  • Peak Period 8s
  • Average Period 5s
  • Wind
    4mph, 7mph gusts
  • Sea Temp 65°f
  • Aire Temp 65°f
  • Sea Pressure 1010.3mb
  • Portland 12 Nm Southeast Of Portland,me
  • Portland 12 Nm Southeast Of Portland,me

More Historic Weather Station data

Upgrade to MSW Pro to gain access to the past 30 days of data for over 8000 Wavebouys and Weather Stations around the globe.

Join Pro

Comparision Forecast

View Surf forecast
   
jue 07/24 5:50 1.3ft 8s 5s 4 7 mph 1010.3mb 65f 65f
4:50 1.3ft 8s 5s 7 9 mph 1009.8mb 65f 66f
3:50 1.3ft 8s 5s 9 11 mph 1009.8mb 65f 66f
2:50 1.3ft 10s 5s 9 11 mph 1010mb 65f 65f
1:50 1.3ft 8s 4s 9 11 mph 1010.1mb 65f 67f
12:50 1.6ft 8s 4s 9 11 mph 1010.2mb 64f 65f
11:50 1.6ft 8s 5s 9 11 mph 1010.2mb 63f 65f
10:50 2ft 5s 5s 9
mph
1009.9mb 62f 64f
9:50 2ft 5s 5s 9 11 mph 1009.7mb 61f 63f
8:50 2.5ft 5s 5s 11
mph
1009.3mb 61f 64f
7:50 2.5ft 5s 4s 13 16 mph 1008.7mb 61f 64f
6:50 2.5ft 6s 5s 16 18 mph 1008.4mb 62f 64f
5:50 2.5ft 8s 5s 13 16 mph 1008mb 62f 65f
4:50 2.5ft 6s 5s 2 4 mph 1007.7mb 61f 66f
3:50 3ft 6s 5s 4
mph
1007.5mb 60f 65f
2:50 3ft 6s 5s 2
mph
1007mb 61f 64f
1:50 3ft 6s 5s 4
mph
1007mb 61f 65f
12:50 3ft 6s 5s 4 7 mph 1007.6mb 61f 66f
mié 07/23 11:50 3.5ft 7s 5s 2 4 mph 1007.8mb 61f 65f
10:50 3.5ft 6s 5s 4
mph
1007.9mb 61f 69f
9:50 3.5ft 6s 5s 4 9 mph 1008.7mb 61f 67f
8:50 3.5ft 7s 5s 9 13 mph 1008mb 61f 72f
7:50 4ft 5s 5s 13 16 mph 1006.4mb 62f 67f
6:50 3.5ft 5s 4s 16 18 mph 1005.7mb 62f 68f
5:50 3.5ft 5s 4s 18 20 mph 1005.5mb 61f 69f
4:50 3.5ft 5s 4s 18 22 mph 1006mb 62f 69f
3:50 3.5ft 8s 4s 20 22 mph 1006.4mb 62f 69f
2:50 3ft 8s 4s 18 20 mph 1007.2mb 62f 68f
1:50 3ft 9s 4s 16 18 mph 1007.9mb 62f 67f
12:50 2.5ft 9s 4s 16 18 mph 1008.5mb 62f 68f
11:50 2.5ft 6s 5s 16 18 mph 1009.1mb 63f 67f
10:50 2.5ft 6s 5s 16 18 mph 1009.8mb 63f 67f
9:50 3ft 7s 5s 13 16 mph 1010.3mb 64f 67f
8:50 2.5ft 7s 5s 13 16 mph 1010.8mb 64f 66f
7:50 2.5ft 7s 5s 13
mph
1011.1mb 64f 66f
6:50 2.5ft 7s 5s 13
mph
1011.3mb 64f 66f
5:50 2.5ft 7s 5s 9
mph
1011.7mb 64f 66f
4:50 2.5ft 7s 5s 9 11 mph 1011.8mb 64f 65f
3:50 3ft 5s 5s 11 13 mph 1012.1mb 64f 66f
2:50 2.5ft 4s 4s 7
mph
1012.7mb 64f 65f
1:50 2.5ft 5s 5s 11 13 mph 1012.9mb 64f 66f
12:50 2.5ft 8s 4s 13 16 mph 1013.2mb 64f 67f
mar 07/22 11:50 2.5ft 8s 5s 13 16 mph 1013.5mb 64f 67f
10:50 3ft 7s 5s 11 13 mph 1014.1mb 64f 66f
9:50 2.5ft 7s 5s 9 11 mph 1014.9mb 64f 67f
8:50 2.5ft 7s 5s 9 11 mph 1014.8mb 64f 67f
7:50 2.5ft 7s 5s 7 9 mph 1015.1mb 64f 66f
6:50 2.5ft 7s 5s 7 9 mph 1015.4mb 65f 67f
5:50 2.5ft 7s 4s 7 9 mph 1015.9mb 65f 67f
4:50 2.5ft 7s 4s 13 16 mph 1016.5mb 65f 67f
3:50 2.5ft 7s 4s 16 18 mph 1016.9mb 65f 67f
2:50 2.5ft 7s 5s 13 16 mph 1017.7mb 65f 67f
1:50 2ft 8s 5s 11 13 mph 1017.7mb 65f 66f
12:50 2ft 7s 5s 11 13 mph 1018.7mb 65f 65f
11:50 2ft 8s 5s 9
mph
1019.2mb 65f 65f
10:50 2ft 7s 5s 7
mph
1019.9mb 64f 65f
9:50 2.5ft 6s 6s 9 11 mph 1019.5mb 64f 64f
8:50 2.5ft 7s 6s 9 11 mph 1019.7mb 64f 64f
7:50 2.5ft 7s 6s 9
mph
1020.1mb 64f 64f
6:50 2ft 6s 6s 9
mph
1020mb 64f 64f
5:50 2ft 7s 6s 9
mph
1020.1mb 64f 64f
4:50 2ft 7s 6s 7 9 mph 1020.2mb 62f 63f
3:50 2ft 7s 6s 7
mph
1020mb 62f 62f
2:50 2ft 7s 6s 7
mph
1020.4mb 62f 62f
1:50 2ft 8s 6s 7
mph
1020.7mb 62f 62f
12:50 2ft 7s 6s 7
mph
1020.8mb 63f 63f
lun 07/21 11:50 2.5ft 7s 6s 7
mph
1021.1mb 64f 63f
10:50 2.5ft 7s 6s 4 7 mph 1021.4mb 64f 62f
9:50 2.5ft 7s 6s 7
mph
1021.4mb 64f 62f
8:50 2.5ft 7s 6s 9
mph
1021.1mb 64f 62f
7:50 2.5ft 7s 6s 7
mph
1020.9mb 64f 62f
6:50 2.5ft 8s 6s 7
mph
1020.9mb 65f 65f
5:50 2.5ft 7s 6s 7 9 mph 1020.9mb 65f 65f
4:50 2ft 7s 6s 9
mph
1021.1mb 65f 65f
3:50 2ft 7s 6s 11
mph
1021.5mb 65f 63f
2:50 2ft 8s 5s 7
mph
1022.2mb 66f 65f
1:50 1.6ft 7s 5s 4
mph
1022.5mb 65f 64f
12:50 1.6ft 8s 5s 2
mph
1022.8mb 65f 64f
11:50 2ft 7s 5s 2
mph
1023.1mb 65f 63f
10:50 2ft 7s 5s 2 4 mph 1023.3mb 64f 63f
9:50 2ft 7s 5s 4 7 mph 1023mb 64f 62f
8:50 2ft 6s 5s 7
mph
1022.9mb 63f 61f
7:50 2ft 7s 5s 7 9 mph 1022.7mb 63f 62f
6:50 2ft 8s 6s 7 9 mph 1022.4mb 63f 62f
5:50 1.6ft 8s 6s 9
mph
1022.1mb 63f 61f
4:50 2ft 7s 6s 7 9 mph 1022mb 63f 61f
3:50 1.6ft 7s 5s 9
mph
1021.6mb 63f 60f
2:50 1.6ft 7s 5s 7
mph
1021.6mb 63f 61f
1:50 1.6ft 8s 5s 7 9 mph 1022mb 63f 62f
12:50 2ft 8s 5s 7
mph
1022.3mb 63f 62f
dom 07/20 11:50 1.6ft 8s 5s 9
mph
1022mb 63f 62f